sensor_id;sensor_type;location;lat;lon;timestamp;P1;durP1;ratioP1;P2;durP2;ratioP2
13872;SDS011;7006;51.494;11.964;2022-07-10T00:00:12;2.67;;;1.17;;
13872;SDS011;7006;51.494;11.964;2022-07-10T00:02:40;4.03;;;1.53;;
13872;SDS011;7006;51.494;11.964;2022-07-10T00:05:10;3.63;;;1.73;;
13872;SDS011;7006;51.494;11.964;2022-07-10T00:07:36;3.30;;;1.70;;
13872;SDS011;7006;51.494;11.964;2022-07-10T00:10:03;4.20;;;1.70;;
13872;SDS011;7006;51.494;11.964;2022-07-10T00:12:31;4.40;;;1.80;;
13872;SDS011;7006;51.494;11.964;2022-07-10T00:14:58;4.83;;;1.30;;
13872;SDS011;7006;51.494;11.964;2022-07-10T00:17:24;4.83;;;1.60;;
13872;SDS011;7006;51.494;11.964;2022-07-10T00:19:51;8.00;;;1.63;;
13872;SDS011;7006;51.494;11.964;2022-07-10T00:22:19;3.10;;;1.40;;
13872;SDS011;7006;51.494;11.964;2022-07-10T00:24:46;4.60;;;1.43;;
13872;SDS011;7006;51.494;11.964;2022-07-10T00:27:12;3.30;;;1.50;;
13872;SDS011;7006;51.494;11.964;2022-07-10T00:29:39;4.47;;;1.80;;
13872;SDS011;7006;51.494;11.964;2022-07-10T00:32:05;4.93;;;1.50;;
13872;SDS011;7006;51.494;11.964;2022-07-10T00:34:32;4.07;;;1.33;;
13872;SDS011;7006;51.494;11.964;2022-07-10T00:37:00;5.90;;;1.50;;
13872;SDS011;7006;51.494;11.964;2022-07-10T00:39:28;7.10;;;1.57;;
13872;SDS011;7006;51.494;11.964;2022-07-10T00:41:55;3.83;;;1.43;;
13872;SDS011;7006;51.494;11.964;2022-07-10T00:44:21;3.03;;;1.70;;
13872;SDS011;7006;51.494;11.964;2022-07-10T00:46:48;5.90;;;1.60;;
13872;SDS011;7006;51.494;11.964;2022-07-10T00:49:14;5.00;;;1.60;;
13872;SDS011;7006;51.494;11.964;2022-07-10T00:51:41;2.83;;;1.17;;
13872;SDS011;7006;51.494;11.964;2022-07-10T00:54:07;4.17;;;1.20;;
13872;SDS011;7006;51.494;11.964;2022-07-10T00:56:35;5.10;;;1.30;;
13872;SDS011;7006;51.494;11.964;2022-07-10T00:59:02;2.83;;;1.00;;
13872;SDS011;7006;51.494;11.964;2022-07-10T01:01:29;5.67;;;1.90;;
13872;SDS011;7006;51.494;11.964;2022-07-10T01:03:56;4.67;;;1.47;;
13872;SDS011;7006;51.494;11.964;2022-07-10T01:06:22;5.70;;;1.47;;
13872;SDS011;7006;51.494;11.964;2022-07-10T01:08:49;4.23;;;1.60;;
13872;SDS011;7006;51.494;11.964;2022-07-10T01:11:15;5.23;;;1.80;;
13872;SDS011;7006;51.494;11.964;2022-07-10T01:13:43;2.93;;;1.30;;
13872;SDS011;7006;51.494;11.964;2022-07-10T01:16:10;5.93;;;1.80;;
13872;SDS011;7006;51.494;11.964;2022-07-10T01:18:37;4.77;;;1.87;;
13872;SDS011;7006;51.494;11.964;2022-07-10T01:21:05;4.80;;;1.50;;
13872;SDS011;7006;51.494;11.964;2022-07-10T01:23:32;3.63;;;1.53;;
13872;SDS011;7006;51.494;11.964;2022-07-10T01:25:58;5.60;;;1.60;;
13872;SDS011;7006;51.494;11.964;2022-07-10T01:28:27;5.23;;;1.90;;
13872;SDS011;7006;51.494;11.964;2022-07-10T01:30:54;4.40;;;1.77;;
13872;SDS011;7006;51.494;11.964;2022-07-10T01:33:21;6.20;;;1.30;;
13872;SDS011;7006;51.494;11.964;2022-07-10T01:35:47;3.30;;;1.20;;
13872;SDS011;7006;51.494;11.964;2022-07-10T01:38:15;4.17;;;1.03;;
13872;SDS011;7006;51.494;11.964;2022-07-10T01:40:42;3.80;;;1.23;;
13872;SDS011;7006;51.494;11.964;2022-07-10T01:43:08;5.80;;;1.40;;
13872;SDS011;7006;51.494;11.964;2022-07-10T01:45:35;6.07;;;1.77;;
13872;SDS011;7006;51.494;11.964;2022-07-10T01:48:01;5.50;;;1.50;;
13872;SDS011;7006;51.494;11.964;2022-07-10T01:50:28;6.03;;;1.57;;
13872;SDS011;7006;51.494;11.964;2022-07-10T01:52:54;3.83;;;1.27;;
13872;SDS011;7006;51.494;11.964;2022-07-10T01:55:22;2.47;;;1.23;;
13872;SDS011;7006;51.494;11.964;2022-07-10T01:57:49;5.90;;;1.57;;
13872;SDS011;7006;51.494;11.964;2022-07-10T02:00:16;4.87;;;1.33;;
13872;SDS011;7006;51.494;11.964;2022-07-10T02:02:42;4.03;;;1.40;;
13872;SDS011;7006;51.494;11.964;2022-07-10T02:05:29;3.73;;;1.50;;
13872;SDS011;7006;51.494;11.964;2022-07-10T02:07:54;5.30;;;1.40;;
13872;SDS011;7006;51.494;11.964;2022-07-10T02:10:22;6.67;;;1.37;;
13872;SDS011;7006;51.494;11.964;2022-07-10T02:12:49;4.53;;;1.40;;
13872;SDS011;7006;51.494;11.964;2022-07-10T02:15:16;4.90;;;1.40;;
13872;SDS011;7006;51.494;11.964;2022-07-10T02:17:42;5.87;;;1.70;;
13872;SDS011;7006;51.494;11.964;2022-07-10T02:20:09;3.50;;;1.30;;
13872;SDS011;7006;51.494;11.964;2022-07-10T02:22:36;5.63;;;1.63;;
13872;SDS011;7006;51.494;11.964;2022-07-10T02:25:03;3.97;;;1.90;;
13872;SDS011;7006;51.494;11.964;2022-07-10T02:27:31;11.33;;;2.13;;
13872;SDS011;7006;51.494;11.964;2022-07-10T02:29:58;5.60;;;1.40;;
13872;SDS011;7006;51.494;11.964;2022-07-10T02:32:24;2.73;;;1.20;;
13872;SDS011;7006;51.494;11.964;2022-07-10T02:34:51;3.83;;;1.13;;
13872;SDS011;7006;51.494;11.964;2022-07-10T02:37:17;3.60;;;1.20;;
13872;SDS011;7006;51.494;11.964;2022-07-10T02:39:44;7.90;;;1.53;;
13872;SDS011;7006;51.494;11.964;2022-07-10T02:42:10;5.17;;;1.40;;
13872;SDS011;7006;51.494;11.964;2022-07-10T02:44:38;5.77;;;1.60;;
13872;SDS011;7006;51.494;11.964;2022-07-10T02:47:05;4.93;;;1.40;;
13872;SDS011;7006;51.494;11.964;2022-07-10T02:49:32;7.20;;;1.50;;
13872;SDS011;7006;51.494;11.964;2022-07-10T02:51:58;4.73;;;1.30;;
13872;SDS011;7006;51.494;11.964;2022-07-10T02:54:25;6.67;;;1.50;;
13872;SDS011;7006;51.494;11.964;2022-07-10T02:56:51;6.67;;;1.70;;
13872;SDS011;7006;51.494;11.964;2022-07-10T02:59:18;5.50;;;1.40;;
13872;SDS011;7006;51.494;11.964;2022-07-10T03:01:46;4.57;;;1.10;;
13872;SDS011;7006;51.494;11.964;2022-07-10T03:04:12;5.80;;;1.47;;
13872;SDS011;7006;51.494;11.964;2022-07-10T03:06:39;3.97;;;1.67;;
13872;SDS011;7006;51.494;11.964;2022-07-10T03:09:05;5.17;;;1.60;;
13872;SDS011;7006;51.494;11.964;2022-07-10T03:11:32;4.27;;;1.60;;
13872;SDS011;7006;51.494;11.964;2022-07-10T03:13:58;4.23;;;1.30;;
13872;SDS011;7006;51.494;11.964;2022-07-10T03:16:25;7.17;;;1.60;;
13872;SDS011;7006;51.494;11.964;2022-07-10T03:18:53;4.53;;;1.50;;
13872;SDS011;7006;51.494;11.964;2022-07-10T03:21:19;3.53;;;1.40;;
13872;SDS011;7006;51.494;11.964;2022-07-10T03:23:46;4.40;;;1.70;;
13872;SDS011;7006;51.494;11.964;2022-07-10T03:26:12;5.50;;;1.23;;
13872;SDS011;7006;51.494;11.964;2022-07-10T03:28:39;3.83;;;1.77;;
13872;SDS011;7006;51.494;11.964;2022-07-10T03:31:05;3.60;;;1.60;;
13872;SDS011;7006;51.494;11.964;2022-07-10T03:33:32;3.70;;;1.50;;
13872;SDS011;7006;51.494;11.964;2022-07-10T03:36:00;8.83;;;1.97;;
13872;SDS011;7006;51.494;11.964;2022-07-10T03:38:28;5.83;;;1.30;;
13872;SDS011;7006;51.494;11.964;2022-07-10T03:40:54;4.40;;;2.07;;
13872;SDS011;7006;51.494;11.964;2022-07-10T03:43:21;5.20;;;1.53;;
13872;SDS011;7006;51.494;11.964;2022-07-10T03:45:47;3.40;;;1.37;;
13872;SDS011;7006;51.494;11.964;2022-07-10T03:48:14;3.17;;;1.53;;
13872;SDS011;7006;51.494;11.964;2022-07-10T03:50:40;3.60;;;1.63;;
13872;SDS011;7006;51.494;11.964;2022-07-10T03:53:08;3.80;;;1.33;;
13872;SDS011;7006;51.494;11.964;2022-07-10T03:55:35;3.40;;;1.20;;
13872;SDS011;7006;51.494;11.964;2022-07-10T03:58:01;4.47;;;1.40;;
13872;SDS011;7006;51.494;11.964;2022-07-10T04:00:28;6.80;;;1.50;;
13872;SDS011;7006;51.494;11.964;2022-07-10T04:02:57;6.93;;;1.37;;
13872;SDS011;7006;51.494;11.964;2022-07-10T04:05:25;4.10;;;1.20;;
13872;SDS011;7006;51.494;11.964;2022-07-10T04:07:52;7.03;;;1.53;;
13872;SDS011;7006;51.494;11.964;2022-07-10T04:10:20;5.03;;;1.63;;
13872;SDS011;7006;51.494;11.964;2022-07-10T04:12:46;5.03;;;1.80;;
13872;SDS011;7006;51.494;11.964;2022-07-10T04:15:13;4.70;;;1.40;;
13872;SDS011;7006;51.494;11.964;2022-07-10T04:17:40;2.47;;;1.37;;
13872;SDS011;7006;51.494;11.964;2022-07-10T04:20:07;4.53;;;1.40;;
13872;SDS011;7006;51.494;11.964;2022-07-10T04:22:34;4.27;;;1.47;;
13872;SDS011;7006;51.494;11.964;2022-07-10T04:25:01;4.43;;;1.87;;
13872;SDS011;7006;51.494;11.964;2022-07-10T04:27:29;4.50;;;1.77;;
13872;SDS011;7006;51.494;11.964;2022-07-10T04:29:56;5.30;;;1.60;;
13872;SDS011;7006;51.494;11.964;2022-07-10T04:32:22;5.20;;;1.37;;
13872;SDS011;7006;51.494;11.964;2022-07-10T04:34:49;5.40;;;1.90;;
13872;SDS011;7006;51.494;11.964;2022-07-10T04:37:16;4.20;;;1.80;;
13872;SDS011;7006;51.494;11.964;2022-07-10T04:39:42;4.83;;;1.80;;
13872;SDS011;7006;51.494;11.964;2022-07-10T04:42:09;7.10;;;1.50;;
13872;SDS011;7006;51.494;11.964;2022-07-10T04:44:37;3.83;;;1.90;;
13872;SDS011;7006;51.494;11.964;2022-07-10T04:47:04;5.73;;;1.67;;
13872;SDS011;7006;51.494;11.964;2022-07-10T04:49:31;6.73;;;1.60;;
13872;SDS011;7006;51.494;11.964;2022-07-10T04:51:58;7.40;;;1.60;;
13872;SDS011;7006;51.494;11.964;2022-07-10T04:54:25;8.87;;;1.63;;
13872;SDS011;7006;51.494;11.964;2022-07-10T04:56:51;7.43;;;2.03;;
13872;SDS011;7006;51.494;11.964;2022-07-10T04:59:18;4.77;;;2.10;;
13872;SDS011;7006;51.494;11.964;2022-07-10T05:01:45;4.57;;;1.70;;
13872;SDS011;7006;51.494;11.964;2022-07-10T05:04:12;5.80;;;2.13;;
13872;SDS011;7006;51.494;11.964;2022-07-10T05:06:39;3.10;;;1.80;;
13872;SDS011;7006;51.494;11.964;2022-07-10T05:09:05;5.33;;;2.00;;
13872;SDS011;7006;51.494;11.964;2022-07-10T05:11:32;4.93;;;1.83;;
13872;SDS011;7006;51.494;11.964;2022-07-10T05:13:59;4.83;;;1.60;;
13872;SDS011;7006;51.494;11.964;2022-07-10T05:16:25;3.63;;;1.83;;
13872;SDS011;7006;51.494;11.964;2022-07-10T05:18:53;7.70;;;2.10;;
13872;SDS011;7006;51.494;11.964;2022-07-10T05:21:20;3.43;;;1.63;;
13872;SDS011;7006;51.494;11.964;2022-07-10T05:23:46;3.23;;;2.00;;
13872;SDS011;7006;51.494;11.964;2022-07-10T05:26:13;4.73;;;2.03;;
13872;SDS011;7006;51.494;11.964;2022-07-10T05:28:39;4.53;;;1.50;;
13872;SDS011;7006;51.494;11.964;2022-07-10T05:31:06;8.20;;;2.00;;
13872;SDS011;7006;51.494;11.964;2022-07-10T05:33:32;3.83;;;1.63;;
13872;SDS011;7006;51.494;11.964;2022-07-10T05:36:00;6.53;;;1.80;;
13872;SDS011;7006;51.494;11.964;2022-07-10T05:38:27;6.03;;;2.00;;
13872;SDS011;7006;51.494;11.964;2022-07-10T05:40:53;5.40;;;2.53;;
13872;SDS011;7006;51.494;11.964;2022-07-10T05:43:20;6.13;;;2.20;;
13872;SDS011;7006;51.494;11.964;2022-07-10T05:45:47;8.00;;;2.63;;
13872;SDS011;7006;51.494;11.964;2022-07-10T05:48:13;4.70;;;2.20;;
13872;SDS011;7006;51.494;11.964;2022-07-10T05:50:40;5.73;;;2.13;;
13872;SDS011;7006;51.494;11.964;2022-07-10T05:53:07;6.57;;;2.37;;
13872;SDS011;7006;51.494;11.964;2022-07-10T05:55:34;5.80;;;1.80;;
13872;SDS011;7006;51.494;11.964;2022-07-10T05:58:00;4.80;;;1.80;;
13872;SDS011;7006;51.494;11.964;2022-07-10T06:00:27;5.50;;;1.80;;
13872;SDS011;7006;51.494;11.964;2022-07-10T06:02:54;11.50;;;2.20;;
13872;SDS011;7006;51.494;11.964;2022-07-10T06:05:20;13.80;;;2.07;;
13872;SDS011;7006;51.494;11.964;2022-07-10T06:07:47;7.93;;;2.27;;
13872;SDS011;7006;51.494;11.964;2022-07-10T06:10:14;3.90;;;1.63;;
13872;SDS011;7006;51.494;11.964;2022-07-10T06:12:42;3.60;;;1.60;;
13872;SDS011;7006;51.494;11.964;2022-07-10T06:15:08;3.90;;;1.73;;
13872;SDS011;7006;51.494;11.964;2022-07-10T06:17:36;4.30;;;1.40;;
13872;SDS011;7006;51.494;11.964;2022-07-10T06:20:02;5.17;;;1.53;;
13872;SDS011;7006;51.494;11.964;2022-07-10T06:22:29;4.50;;;1.30;;
13872;SDS011;7006;51.494;11.964;2022-07-10T06:24:56;3.67;;;1.17;;
13872;SDS011;7006;51.494;11.964;2022-07-10T06:27:24;4.20;;;1.50;;
13872;SDS011;7006;51.494;11.964;2022-07-10T06:29:51;3.53;;;1.37;;
13872;SDS011;7006;51.494;11.964;2022-07-10T06:32:18;4.57;;;1.30;;
13872;SDS011;7006;51.494;11.964;2022-07-10T06:34:45;5.03;;;1.50;;
13872;SDS011;7006;51.494;11.964;2022-07-10T06:37:12;5.67;;;1.40;;
13872;SDS011;7006;51.494;11.964;2022-07-10T06:39:38;3.77;;;1.53;;
13872;SDS011;7006;51.494;11.964;2022-07-10T06:42:05;3.83;;;1.33;;
13872;SDS011;7006;51.494;11.964;2022-07-10T06:44:33;6.33;;;2.10;;
13872;SDS011;7006;51.494;11.964;2022-07-10T06:47:00;6.83;;;1.63;;
13872;SDS011;7006;51.494;11.964;2022-07-10T06:49:44;3.70;;;1.40;;
13872;SDS011;7006;51.494;11.964;2022-07-10T06:52:11;4.00;;;1.57;;
13872;SDS011;7006;51.494;11.964;2022-07-10T06:54:38;2.80;;;1.30;;
13872;SDS011;7006;51.494;11.964;2022-07-10T06:57:04;2.43;;;1.57;;
13872;SDS011;7006;51.494;11.964;2022-07-10T06:59:31;4.33;;;2.27;;
13872;SDS011;7006;51.494;11.964;2022-07-10T07:01:59;3.50;;;1.60;;
13872;SDS011;7006;51.494;11.964;2022-07-10T07:04:26;6.57;;;2.07;;
13872;SDS011;7006;51.494;11.964;2022-07-10T07:06:52;5.87;;;1.60;;
13872;SDS011;7006;51.494;11.964;2022-07-10T07:09:19;4.73;;;1.50;;
13872;SDS011;7006;51.494;11.964;2022-07-10T07:11:45;5.13;;;1.60;;
13872;SDS011;7006;51.494;11.964;2022-07-10T07:14:12;4.00;;;1.40;;
13872;SDS011;7006;51.494;11.964;2022-07-10T07:16:39;4.17;;;1.70;;
13872;SDS011;7006;51.494;11.964;2022-07-10T07:19:09;3.17;;;1.20;;
13872;SDS011;7006;51.494;11.964;2022-07-10T07:21:36;6.27;;;1.90;;
13872;SDS011;7006;51.494;11.964;2022-07-10T07:24:21;3.60;;;1.70;;
13872;SDS011;7006;51.494;11.964;2022-07-10T07:26:48;4.40;;;1.83;;
13872;SDS011;7006;51.494;11.964;2022-07-10T07:29:14;4.83;;;1.63;;
13872;SDS011;7006;51.494;11.964;2022-07-10T07:31:41;4.60;;;1.53;;
13872;SDS011;7006;51.494;11.964;2022-07-10T07:34:09;3.57;;;1.60;;
13872;SDS011;7006;51.494;11.964;2022-07-10T07:36:36;4.80;;;1.80;;
13872;SDS011;7006;51.494;11.964;2022-07-10T07:39:03;5.70;;;1.40;;
13872;SDS011;7006;51.494;11.964;2022-07-10T07:41:30;4.50;;;1.40;;
13872;SDS011;7006;51.494;11.964;2022-07-10T07:43:56;7.47;;;1.83;;
13872;SDS011;7006;51.494;11.964;2022-07-10T07:46:23;4.87;;;2.17;;
13872;SDS011;7006;51.494;11.964;2022-07-10T07:48:50;3.80;;;1.40;;
13872;SDS011;7006;51.494;11.964;2022-07-10T07:51:18;5.13;;;1.80;;
13872;SDS011;7006;51.494;11.964;2022-07-10T07:53:44;6.97;;;1.80;;
13872;SDS011;7006;51.494;11.964;2022-07-10T07:56:11;3.33;;;1.70;;
13872;SDS011;7006;51.494;11.964;2022-07-10T07:58:37;3.50;;;1.50;;
13872;SDS011;7006;51.494;11.964;2022-07-10T08:01:04;3.60;;;1.60;;
13872;SDS011;7006;51.494;11.964;2022-07-10T08:03:30;6.37;;;1.80;;
13872;SDS011;7006;51.494;11.964;2022-07-10T08:05:57;4.33;;;2.50;;
13872;SDS011;7006;51.494;11.964;2022-07-10T08:08:25;3.37;;;1.77;;
13872;SDS011;7006;51.494;11.964;2022-07-10T08:10:51;4.20;;;1.80;;
13872;SDS011;7006;51.494;11.964;2022-07-10T08:13:18;3.33;;;1.90;;
13872;SDS011;7006;51.494;11.964;2022-07-10T08:15:44;6.53;;;1.93;;
13872;SDS011;7006;51.494;11.964;2022-07-10T08:18:11;6.83;;;2.17;;
13872;SDS011;7006;51.494;11.964;2022-07-10T08:20:38;5.03;;;2.30;;
13872;SDS011;7006;51.494;11.964;2022-07-10T08:23:04;5.70;;;2.57;;
13872;SDS011;7006;51.494;11.964;2022-07-10T08:25:32;4.00;;;2.17;;
13872;SDS011;7006;51.494;11.964;2022-07-10T08:28:00;5.97;;;2.07;;
13872;SDS011;7006;51.494;11.964;2022-07-10T08:30:27;6.87;;;2.00;;
13872;SDS011;7006;51.494;11.964;2022-07-10T08:32:54;5.80;;;2.23;;
13872;SDS011;7006;51.494;11.964;2022-07-10T08:35:21;4.20;;;2.20;;
13872;SDS011;7006;51.494;11.964;2022-07-10T08:37:48;8.00;;;2.50;;
13872;SDS011;7006;51.494;11.964;2022-07-10T08:40:15;6.50;;;2.90;;
13872;SDS011;7006;51.494;11.964;2022-07-10T08:42:45;4.60;;;2.50;;
13872;SDS011;7006;51.494;11.964;2022-07-10T08:45:11;10.53;;;2.77;;
13872;SDS011;7006;51.494;11.964;2022-07-10T08:47:39;10.20;;;3.10;;
13872;SDS011;7006;51.494;11.964;2022-07-10T08:50:12;5.73;;;2.57;;
13872;SDS011;7006;51.494;11.964;2022-07-10T08:52:43;9.80;;;3.43;;
13872;SDS011;7006;51.494;11.964;2022-07-10T08:55:12;5.90;;;2.97;;
13872;SDS011;7006;51.494;11.964;2022-07-10T08:57:39;5.27;;;2.90;;
13872;SDS011;7006;51.494;11.964;2022-07-10T09:00:09;7.40;;;2.90;;
13872;SDS011;7006;51.494;11.964;2022-07-10T09:02:37;7.40;;;2.57;;
13872;SDS011;7006;51.494;11.964;2022-07-10T09:05:04;10.17;;;2.90;;
13872;SDS011;7006;51.494;11.964;2022-07-10T09:07:34;7.27;;;3.07;;
13872;SDS011;7006;51.494;11.964;2022-07-10T09:10:05;5.33;;;3.00;;
13872;SDS011;7006;51.494;11.964;2022-07-10T09:12:48;8.70;;;3.37;;
13872;SDS011;7006;51.494;11.964;2022-07-10T09:15:17;6.40;;;3.07;;
13872;SDS011;7006;51.494;11.964;2022-07-10T09:17:49;5.53;;;2.93;;
13872;SDS011;7006;51.494;11.964;2022-07-10T09:20:23;9.40;;;2.93;;
13872;SDS011;7006;51.494;11.964;2022-07-10T09:22:50;6.67;;;3.00;;
13872;SDS011;7006;51.494;11.964;2022-07-10T09:25:18;5.50;;;2.50;;
13872;SDS011;7006;51.494;11.964;2022-07-10T09:27:50;8.93;;;2.90;;
13872;SDS011;7006;51.494;11.964;2022-07-10T09:30:32;8.57;;;3.00;;
13872;SDS011;7006;51.494;11.964;2022-07-10T09:33:13;5.47;;;2.53;;
13872;SDS011;7006;51.494;11.964;2022-07-10T09:35:53;5.20;;;2.20;;
13872;SDS011;7006;51.494;11.964;2022-07-10T09:38:49;10.40;;;2.73;;
13872;SDS011;7006;51.494;11.964;2022-07-10T09:41:17;7.73;;;2.77;;
13872;SDS011;7006;51.494;11.964;2022-07-10T09:43:46;4.97;;;2.30;;
13872;SDS011;7006;51.494;11.964;2022-07-10T09:46:15;9.37;;;2.60;;
13872;SDS011;7006;51.494;11.964;2022-07-10T09:48:42;6.50;;;2.40;;
13872;SDS011;7006;51.494;11.964;2022-07-10T09:51:09;7.77;;;3.13;;
13872;SDS011;7006;51.494;11.964;2022-07-10T09:53:37;7.53;;;2.80;;
13872;SDS011;7006;51.494;11.964;2022-07-10T09:56:06;6.70;;;3.23;;
13872;SDS011;7006;51.494;11.964;2022-07-10T09:58:33;6.53;;;3.00;;
13872;SDS011;7006;51.494;11.964;2022-07-10T10:01:01;5.27;;;2.30;;
13872;SDS011;7006;51.494;11.964;2022-07-10T10:03:31;5.80;;;1.80;;
13872;SDS011;7006;51.494;11.964;2022-07-10T10:06:01;8.13;;;2.80;;
13872;SDS011;7006;51.494;11.964;2022-07-10T10:08:30;5.87;;;2.33;;
13872;SDS011;7006;51.494;11.964;2022-07-10T10:10:58;4.63;;;2.43;;
13872;SDS011;7006;51.494;11.964;2022-07-10T10:13:26;4.20;;;2.23;;
13872;SDS011;7006;51.494;11.964;2022-07-10T10:15:53;5.83;;;2.60;;
13872;SDS011;7006;51.494;11.964;2022-07-10T10:18:21;7.60;;;2.53;;
13872;SDS011;7006;51.494;11.964;2022-07-10T10:20:50;6.43;;;2.67;;
13872;SDS011;7006;51.494;11.964;2022-07-10T10:23:18;7.13;;;2.10;;
13872;SDS011;7006;51.494;11.964;2022-07-10T10:25:46;5.10;;;2.60;;
13872;SDS011;7006;51.494;11.964;2022-07-10T10:28:13;5.27;;;2.50;;
13872;SDS011;7006;51.494;11.964;2022-07-10T10:30:42;4.27;;;2.13;;
13872;SDS011;7006;51.494;11.964;2022-07-10T10:36:15;5.73;;;2.40;;
13872;SDS011;7006;51.494;11.964;2022-07-10T10:39:13;8.80;;;2.70;;
13872;SDS011;7006;51.494;11.964;2022-07-10T10:41:42;6.70;;;2.63;;
13872;SDS011;7006;51.494;11.964;2022-07-10T10:44:20;5.27;;;2.60;;
13872;SDS011;7006;51.494;11.964;2022-07-10T10:47:04;7.50;;;3.60;;
13872;SDS011;7006;51.494;11.964;2022-07-10T10:49:47;6.77;;;2.10;;
13872;SDS011;7006;51.494;11.964;2022-07-10T10:52:16;6.00;;;2.57;;
13872;SDS011;7006;51.494;11.964;2022-07-10T10:55:03;6.90;;;2.73;;
13872;SDS011;7006;51.494;11.964;2022-07-10T10:57:39;7.80;;;2.90;;
13872;SDS011;7006;51.494;11.964;2022-07-10T11:00:12;6.70;;;3.37;;
13872;SDS011;7006;51.494;11.964;2022-07-10T11:02:44;6.50;;;4.90;;
13872;SDS011;7006;51.494;11.964;2022-07-10T11:08:08;7.13;;;2.90;;
13872;SDS011;7006;51.494;11.964;2022-07-10T11:10:35;6.83;;;2.20;;
13872;SDS011;7006;51.494;11.964;2022-07-10T11:13:03;5.83;;;2.37;;
13872;SDS011;7006;51.494;11.964;2022-07-10T11:15:30;3.40;;;2.03;;
13872;SDS011;7006;51.494;11.964;2022-07-10T11:17:58;8.43;;;2.00;;
13872;SDS011;7006;51.494;11.964;2022-07-10T11:20:25;4.50;;;2.67;;
13872;SDS011;7006;51.494;11.964;2022-07-10T11:22:52;10.57;;;2.70;;
13872;SDS011;7006;51.494;11.964;2022-07-10T11:25:45;7.03;;;2.43;;
13872;SDS011;7006;51.494;11.964;2022-07-10T11:28:25;6.27;;;2.40;;
13872;SDS011;7006;51.494;11.964;2022-07-10T11:30:58;5.90;;;2.40;;
13872;SDS011;7006;51.494;11.964;2022-07-10T11:33:24;5.10;;;1.53;;
13872;SDS011;7006;51.494;11.964;2022-07-10T11:35:52;9.07;;;2.70;;
13872;SDS011;7006;51.494;11.964;2022-07-10T11:38:21;6.40;;;2.00;;
13872;SDS011;7006;51.494;11.964;2022-07-10T11:40:48;3.80;;;1.40;;
13872;SDS011;7006;51.494;11.964;2022-07-10T11:43:15;5.47;;;2.17;;
13872;SDS011;7006;51.494;11.964;2022-07-10T11:45:44;4.63;;;1.80;;
13872;SDS011;7006;51.494;11.964;2022-07-10T11:48:17;5.60;;;1.87;;
13872;SDS011;7006;51.494;11.964;2022-07-10T11:50:44;7.07;;;2.23;;
13872;SDS011;7006;51.494;11.964;2022-07-10T11:53:11;6.07;;;2.00;;
13872;SDS011;7006;51.494;11.964;2022-07-10T11:55:39;4.43;;;1.90;;
13872;SDS011;7006;51.494;11.964;2022-07-10T11:58:12;7.77;;;2.37;;
13872;SDS011;7006;51.494;11.964;2022-07-10T12:00:39;4.10;;;1.87;;
13872;SDS011;7006;51.494;11.964;2022-07-10T12:03:16;5.77;;;2.20;;
13872;SDS011;7006;51.494;11.964;2022-07-10T12:05:43;4.23;;;1.73;;
13872;SDS011;7006;51.494;11.964;2022-07-10T12:08:12;6.33;;;2.20;;
13872;SDS011;7006;51.494;11.964;2022-07-10T12:10:40;5.90;;;2.00;;
13872;SDS011;7006;51.494;11.964;2022-07-10T12:13:08;6.10;;;2.10;;
13872;SDS011;7006;51.494;11.964;2022-07-10T12:15:36;4.30;;;1.80;;
13872;SDS011;7006;51.494;11.964;2022-07-10T12:18:04;5.60;;;1.87;;
13872;SDS011;7006;51.494;11.964;2022-07-10T12:20:32;5.00;;;2.10;;
13872;SDS011;7006;51.494;11.964;2022-07-10T12:22:58;4.13;;;1.93;;
13872;SDS011;7006;51.494;11.964;2022-07-10T12:25:25;7.17;;;3.30;;
13872;SDS011;7006;51.494;11.964;2022-07-10T12:27:56;4.50;;;2.10;;
13872;SDS011;7006;51.494;11.964;2022-07-10T12:30:23;5.50;;;2.13;;
13872;SDS011;7006;51.494;11.964;2022-07-10T12:32:50;4.20;;;1.83;;
13872;SDS011;7006;51.494;11.964;2022-07-10T12:35:17;5.83;;;2.23;;
13872;SDS011;7006;51.494;11.964;2022-07-10T12:37:46;4.33;;;1.90;;
13872;SDS011;7006;51.494;11.964;2022-07-10T12:43:03;7.67;;;2.30;;
13872;SDS011;7006;51.494;11.964;2022-07-10T12:45:30;5.40;;;2.17;;
13872;SDS011;7006;51.494;11.964;2022-07-10T12:47:57;4.70;;;1.90;;
13872;SDS011;7006;51.494;11.964;2022-07-10T12:50:23;3.93;;;1.93;;
13872;SDS011;7006;51.494;11.964;2022-07-10T12:53:06;7.60;;;2.30;;
13872;SDS011;7006;51.494;11.964;2022-07-10T12:55:36;9.00;;;3.50;;
13872;SDS011;7006;51.494;11.964;2022-07-10T12:58:08;4.00;;;2.27;;
13872;SDS011;7006;51.494;11.964;2022-07-10T13:00:42;6.53;;;2.70;;
13872;SDS011;7006;51.494;11.964;2022-07-10T13:03:16;7.87;;;2.60;;
13872;SDS011;7006;51.494;11.964;2022-07-10T13:05:47;5.10;;;2.07;;
13872;SDS011;7006;51.494;11.964;2022-07-10T13:08:14;6.07;;;2.30;;
13872;SDS011;7006;51.494;11.964;2022-07-10T13:10:42;6.23;;;2.20;;
13872;SDS011;7006;51.494;11.964;2022-07-10T13:13:12;4.67;;;1.93;;
13872;SDS011;7006;51.494;11.964;2022-07-10T13:15:38;4.60;;;1.77;;
13872;SDS011;7006;51.494;11.964;2022-07-10T13:18:12;4.93;;;2.23;;
13872;SDS011;7006;51.494;11.964;2022-07-10T13:20:39;7.20;;;2.77;;
13872;SDS011;7006;51.494;11.964;2022-07-10T13:23:05;4.97;;;1.80;;
13872;SDS011;7006;51.494;11.964;2022-07-10T13:25:33;5.63;;;1.80;;
13872;SDS011;7006;51.494;11.964;2022-07-10T13:28:00;5.57;;;1.80;;
13872;SDS011;7006;51.494;11.964;2022-07-10T13:30:28;3.63;;;1.73;;
13872;SDS011;7006;51.494;11.964;2022-07-10T13:32:55;6.83;;;2.00;;
13872;SDS011;7006;51.494;11.964;2022-07-10T13:35:21;5.43;;;1.60;;
13872;SDS011;7006;51.494;11.964;2022-07-10T13:37:48;6.00;;;2.40;;
13872;SDS011;7006;51.494;11.964;2022-07-10T13:40:15;5.90;;;2.10;;
13872;SDS011;7006;51.494;11.964;2022-07-10T13:42:42;6.20;;;2.00;;
13872;SDS011;7006;51.494;11.964;2022-07-10T13:45:09;6.27;;;1.90;;
13872;SDS011;7006;51.494;11.964;2022-07-10T13:47:37;6.27;;;2.00;;
13872;SDS011;7006;51.494;11.964;2022-07-10T13:50:04;4.43;;;1.77;;
13872;SDS011;7006;51.494;11.964;2022-07-10T13:52:31;4.57;;;2.20;;
13872;SDS011;7006;51.494;11.964;2022-07-10T13:54:58;6.73;;;1.83;;
13872;SDS011;7006;51.494;11.964;2022-07-10T13:57:25;5.80;;;2.13;;
13872;SDS011;7006;51.494;11.964;2022-07-10T13:59:52;5.60;;;2.10;;
13872;SDS011;7006;51.494;11.964;2022-07-10T14:02:18;4.73;;;1.90;;
13872;SDS011;7006;51.494;11.964;2022-07-10T14:04:47;4.80;;;1.90;;
13872;SDS011;7006;51.494;11.964;2022-07-10T14:07:13;7.63;;;2.17;;
13872;SDS011;7006;51.494;11.964;2022-07-10T14:09:40;5.53;;;1.70;;
13872;SDS011;7006;51.494;11.964;2022-07-10T14:12:06;7.33;;;2.27;;
13872;SDS011;7006;51.494;11.964;2022-07-10T14:14:33;3.33;;;1.70;;
13872;SDS011;7006;51.494;11.964;2022-07-10T14:17:00;9.00;;;1.90;;
13872;SDS011;7006;51.494;11.964;2022-07-10T14:19:27;7.47;;;2.00;;
13872;SDS011;7006;51.494;11.964;2022-07-10T14:21:54;6.13;;;2.47;;
13872;SDS011;7006;51.494;11.964;2022-07-10T14:24:21;5.90;;;1.90;;
13872;SDS011;7006;51.494;11.964;2022-07-10T14:26:49;7.20;;;2.20;;
13872;SDS011;7006;51.494;11.964;2022-07-10T14:29:17;4.47;;;1.90;;
13872;SDS011;7006;51.494;11.964;2022-07-10T14:31:43;3.63;;;1.50;;
13872;SDS011;7006;51.494;11.964;2022-07-10T14:34:12;5.83;;;2.33;;
13872;SDS011;7006;51.494;11.964;2022-07-10T14:36:39;5.23;;;1.90;;
13872;SDS011;7006;51.494;11.964;2022-07-10T14:39:07;6.67;;;2.20;;
13872;SDS011;7006;51.494;11.964;2022-07-10T14:41:34;6.23;;;1.93;;
13872;SDS011;7006;51.494;11.964;2022-07-10T14:44:00;4.00;;;1.80;;
13872;SDS011;7006;51.494;11.964;2022-07-10T14:46:27;5.20;;;2.23;;
13872;SDS011;7006;51.494;11.964;2022-07-10T14:48:53;5.27;;;2.10;;
13872;SDS011;7006;51.494;11.964;2022-07-10T14:51:20;5.23;;;1.60;;
13872;SDS011;7006;51.494;11.964;2022-07-10T14:53:46;5.83;;;1.90;;
13872;SDS011;7006;51.494;11.964;2022-07-10T14:56:14;6.60;;;2.23;;
13872;SDS011;7006;51.494;11.964;2022-07-10T14:58:42;5.37;;;2.00;;
13872;SDS011;7006;51.494;11.964;2022-07-10T15:01:08;5.47;;;2.10;;